sensor_id;sensor_type;location;lat;lon;timestamp;pressure;altitude;pressure_sealevel;temperature;humidity
69239;BME280;56349;51.816;-0.026;2023-07-08T00:01:16;100765.85;;;32.35;24.34
69239;BME280;56349;51.816;-0.026;2023-07-08T00:03:40;100766.10;;;32.12;24.31
69239;BME280;56349;51.816;-0.026;2023-07-08T00:06:09;100763.15;;;32.15;24.27
69239;BME280;56349;51.816;-0.026;2023-07-08T00:08:31;100763.18;;;32.19;24.25
69239;BME280;56349;51.816;-0.026;2023-07-08T00:10:57;100759.53;;;32.47;24.22
69239;BME280;56349;51.816;-0.026;2023-07-08T00:13:23;100760.83;;;32.20;24.21
69239;BME280;56349;51.816;-0.026;2023-07-08T00:15:49;100760.31;;;32.21;24.20
69239;BME280;56349;51.816;-0.026;2023-07-08T00:18:17;100760.62;;;32.23;24.19
69239;BME280;56349;51.816;-0.026;2023-07-08T00:20:44;100759.65;;;32.25;24.12
69239;BME280;56349;51.816;-0.026;2023-07-08T00:23:08;100755.10;;;32.20;24.06
69239;BME280;56349;51.816;-0.026;2023-07-08T00:25:33;100751.56;;;32.02;24.09
69239;BME280;56349;51.816;-0.026;2023-07-08T00:27:57;100752.34;;;32.24;24.21
69239;BME280;56349;51.816;-0.026;2023-07-08T00:30:25;100753.04;;;31.69;24.40
69239;BME280;56349;51.816;-0.026;2023-07-08T00:32:50;100749.19;;;31.59;24.66
69239;BME280;56349;51.816;-0.026;2023-07-08T00:35:15;100756.70;;;31.79;24.90
69239;BME280;56349;51.816;-0.026;2023-07-08T00:37:41;100755.91;;;31.08;25.16
69239;BME280;56349;51.816;-0.026;2023-07-08T00:40:15;100756.26;;;30.95;25.33
69239;BME280;56349;51.816;-0.026;2023-07-08T00:42:33;100751.39;;;30.88;25.47
69239;BME280;56349;51.816;-0.026;2023-07-08T00:44:59;100754.75;;;31.11;25.53
69239;BME280;56349;51.816;-0.026;2023-07-08T00:47:25;100754.42;;;30.93;25.56
69239;BME280;56349;51.816;-0.026;2023-07-08T00:49:55;100751.16;;;31.01;25.55
69239;BME280;56349;51.816;-0.026;2023-07-08T00:52:19;100747.02;;;31.07;25.53
69239;BME280;56349;51.816;-0.026;2023-07-08T00:54:42;100743.85;;;31.18;25.49
69239;BME280;56349;51.816;-0.026;2023-07-08T00:57:08;100740.27;;;31.26;25.44
69239;BME280;56349;51.816;-0.026;2023-07-08T00:59:36;100739.33;;;31.36;25.38
69239;BME280;56349;51.816;-0.026;2023-07-08T01:02:02;100733.78;;;31.44;25.33
69239;BME280;56349;51.816;-0.026;2023-07-08T01:04:29;100731.51;;;31.52;25.24
69239;BME280;56349;51.816;-0.026;2023-07-08T01:06:53;100732.50;;;31.56;25.15
69239;BME280;56349;51.816;-0.026;2023-07-08T01:09:16;100733.56;;;31.56;25.11
69239;BME280;56349;51.816;-0.026;2023-07-08T01:11:42;100731.41;;;31.47;25.10
69239;BME280;56349;51.816;-0.026;2023-07-08T01:14:08;100727.59;;;31.37;25.11
69239;BME280;56349;51.816;-0.026;2023-07-08T01:16:32;100730.42;;;31.20;25.19
69239;BME280;56349;51.816;-0.026;2023-07-08T01:18:59;100728.85;;;31.49;25.30
69239;BME280;56349;51.816;-0.026;2023-07-08T01:21:31;100729.09;;;30.98;25.45
69239;BME280;56349;51.816;-0.026;2023-07-08T01:23:49;100726.74;;;31.00;25.62
69239;BME280;56349;51.816;-0.026;2023-07-08T01:26:15;100724.60;;;30.74;25.83
69239;BME280;56349;51.816;-0.026;2023-07-08T01:28:40;100726.82;;;30.51;26.04
69239;BME280;56349;51.816;-0.026;2023-07-08T01:31:05;100724.02;;;30.27;26.23
69239;BME280;56349;51.816;-0.026;2023-07-08T01:33:31;100723.71;;;30.25;26.44
69239;BME280;56349;51.816;-0.026;2023-07-08T01:35:58;100721.22;;;30.03;26.64
69239;BME280;56349;51.816;-0.026;2023-07-08T01:38:26;100722.19;;;30.11;26.83
69239;BME280;56349;51.816;-0.026;2023-07-08T01:40:51;100726.78;;;29.93;27.02
69239;BME280;56349;51.816;-0.026;2023-07-08T01:43:14;100728.18;;;29.76;27.19
69239;BME280;56349;51.816;-0.026;2023-07-08T01:45:41;100724.62;;;29.58;27.38
69239;BME280;56349;51.816;-0.026;2023-07-08T01:48:10;100720.93;;;29.44;27.53
69239;BME280;56349;51.816;-0.026;2023-07-08T01:50:33;100715.08;;;29.27;27.71
69239;BME280;56349;51.816;-0.026;2023-07-08T01:53:00;100714.30;;;29.13;27.87
69239;BME280;56349;51.816;-0.026;2023-07-08T01:55:24;100714.38;;;29.41;28.03
69239;BME280;56349;51.816;-0.026;2023-07-08T01:57:51;100711.42;;;28.83;28.20
69239;BME280;56349;51.816;-0.026;2023-07-08T02:00:15;100707.81;;;28.91;28.34
69239;BME280;56349;51.816;-0.026;2023-07-08T02:02:40;100711.76;;;29.01;28.50
69239;BME280;56349;51.816;-0.026;2023-07-08T02:05:07;100710.44;;;28.88;28.65
69239;BME280;56349;51.816;-0.026;2023-07-08T02:07:32;100707.52;;;28.76;28.78
69239;BME280;56349;51.816;-0.026;2023-07-08T02:09:58;100707.12;;;28.68;28.90
69239;BME280;56349;51.816;-0.026;2023-07-08T02:12:24;100706.10;;;28.60;29.02
69239;BME280;56349;51.816;-0.026;2023-07-08T02:14:50;100705.99;;;28.49;29.15
69239;BME280;56349;51.816;-0.026;2023-07-08T02:17:16;100705.83;;;28.89;29.26
69239;BME280;56349;51.816;-0.026;2023-07-08T02:19:43;100704.99;;;28.82;29.35
69239;BME280;56349;51.816;-0.026;2023-07-08T02:22:09;100706.54;;;28.73;29.46
69239;BME280;56349;51.816;-0.026;2023-07-08T02:24:34;100698.77;;;28.42;29.56
69239;BME280;56349;51.816;-0.026;2023-07-08T02:27:00;100694.24;;;28.35;29.65
69239;BME280;56349;51.816;-0.026;2023-07-08T02:29:26;100690.08;;;28.30;29.73
69239;BME280;56349;51.816;-0.026;2023-07-08T02:31:51;100694.56;;;28.46;29.81
69239;BME280;56349;51.816;-0.026;2023-07-08T02:34:17;100691.76;;;28.39;29.91
69239;BME280;56349;51.816;-0.026;2023-07-08T02:36:43;100677.37;;;27.82;30.00
69239;BME280;56349;51.816;-0.026;2023-07-08T02:39:09;100676.88;;;28.28;30.05
69239;BME280;56349;51.816;-0.026;2023-07-08T02:41:35;100680.26;;;28.02;30.10
69239;BME280;56349;51.816;-0.026;2023-07-08T02:44:01;100682.42;;;27.97;30.17
69239;BME280;56349;51.816;-0.026;2023-07-08T02:46:27;100680.39;;;28.16;30.22
69239;BME280;56349;51.816;-0.026;2023-07-08T02:48:53;100682.08;;;28.13;30.27
69239;BME280;56349;51.816;-0.026;2023-07-08T02:51:19;100682.12;;;28.08;30.34
69239;BME280;56349;51.816;-0.026;2023-07-08T02:53:46;100682.24;;;28.04;30.40
69239;BME280;56349;51.816;-0.026;2023-07-08T02:56:11;100681.66;;;27.78;30.46
69239;BME280;56349;51.816;-0.026;2023-07-08T02:58:37;100683.57;;;27.96;30.51
69239;BME280;56349;51.816;-0.026;2023-07-08T03:01:03;100683.14;;;27.93;30.55
69239;BME280;56349;51.816;-0.026;2023-07-08T03:03:29;100690.18;;;27.88;30.62
69239;BME280;56349;51.816;-0.026;2023-07-08T03:05:56;100694.29;;;27.84;30.68
69239;BME280;56349;51.816;-0.026;2023-07-08T03:08:22;100698.45;;;27.60;30.71
69239;BME280;56349;51.816;-0.026;2023-07-08T03:10:48;100696.43;;;27.80;30.73
69239;BME280;56349;51.816;-0.026;2023-07-08T03:13:13;100703.07;;;27.77;30.77
69239;BME280;56349;51.816;-0.026;2023-07-08T03:15:39;100703.53;;;27.75;30.81
69239;BME280;56349;51.816;-0.026;2023-07-08T03:18:05;100701.69;;;27.72;30.85
69239;BME280;56349;51.816;-0.026;2023-07-08T03:20:31;100704.98;;;27.69;30.89
69239;BME280;56349;51.816;-0.026;2023-07-08T03:22:57;100708.30;;;27.66;30.94
69239;BME280;56349;51.816;-0.026;2023-07-08T03:25:23;100704.08;;;27.90;30.96
69239;BME280;56349;51.816;-0.026;2023-07-08T03:27:49;100703.67;;;27.61;31.01
69239;BME280;56349;51.816;-0.026;2023-07-08T03:30:15;100700.36;;;27.58;31.06
69239;BME280;56349;51.816;-0.026;2023-07-08T03:32:41;100702.68;;;27.57;31.14
69239;BME280;56349;51.816;-0.026;2023-07-08T03:35:08;100706.72;;;27.60;31.19
69239;BME280;56349;51.816;-0.026;2023-07-08T03:37:33;100706.92;;;27.68;31.20
69239;BME280;56349;51.816;-0.026;2023-07-08T03:39:59;100709.40;;;27.81;31.15
69239;BME280;56349;51.816;-0.026;2023-07-08T03:42:25;100707.31;;;27.96;31.09
69239;BME280;56349;51.816;-0.026;2023-07-08T03:44:51;100702.91;;;27.91;30.97
69239;BME280;56349;51.816;-0.026;2023-07-08T03:47:17;100705.70;;;28.09;30.80
69239;BME280;56349;51.816;-0.026;2023-07-08T03:49:43;100702.37;;;28.02;30.57
69239;BME280;56349;51.816;-0.026;2023-07-08T03:52:14;100705.61;;;28.15;30.40
69239;BME280;56349;51.816;-0.026;2023-07-08T03:54:34;100705.93;;;28.22;30.26
69239;BME280;56349;51.816;-0.026;2023-07-08T03:57:00;100703.78;;;28.25;30.18
69239;BME280;56349;51.816;-0.026;2023-07-08T03:59:26;100707.71;;;28.53;30.12
69239;BME280;56349;51.816;-0.026;2023-07-08T04:01:53;100708.36;;;28.22;30.11
69239;BME280;56349;51.816;-0.026;2023-07-08T04:04:19;100712.31;;;28.19;30.10
69239;BME280;56349;51.816;-0.026;2023-07-08T04:06:45;100711.01;;;28.14;30.13
69239;BME280;56349;51.816;-0.026;2023-07-08T04:09:10;100716.08;;;28.34;30.16
69239;BME280;56349;51.816;-0.026;2023-07-08T04:11:36;100717.76;;;28.27;30.21
69239;BME280;56349;51.816;-0.026;2023-07-08T04:14:02;100720.24;;;28.20;30.26
69239;BME280;56349;51.816;-0.026;2023-07-08T04:16:30;100716.67;;;28.12;30.32
69239;BME280;56349;51.816;-0.026;2023-07-08T04:18:54;100707.68;;;27.82;30.35
69239;BME280;56349;51.816;-0.026;2023-07-08T04:21:19;100712.04;;;28.27;30.40
69239;BME280;56349;51.816;-0.026;2023-07-08T04:23:44;100715.93;;;28.21;30.45
69239;BME280;56349;51.816;-0.026;2023-07-08T04:26:10;100712.06;;;27.94;30.51
69239;BME280;56349;51.816;-0.026;2023-07-08T04:28:35;100711.03;;;28.09;30.56
69239;BME280;56349;51.816;-0.026;2023-07-08T04:31:00;100710.65;;;27.55;30.63
69239;BME280;56349;51.816;-0.026;2023-07-08T04:33:26;100718.80;;;27.99;30.67
69239;BME280;56349;51.816;-0.026;2023-07-08T04:35:51;100714.17;;;27.93;30.73
69239;BME280;56349;51.816;-0.026;2023-07-08T04:38:21;100712.69;;;27.87;30.80
69239;BME280;56349;51.816;-0.026;2023-07-08T04:40:42;100713.34;;;27.81;30.86
69239;BME280;56349;51.816;-0.026;2023-07-08T04:43:08;100709.80;;;27.78;30.90
69239;BME280;56349;51.816;-0.026;2023-07-08T04:45:34;100718.89;;;28.00;30.95
69239;BME280;56349;51.816;-0.026;2023-07-08T04:48:00;100721.57;;;27.68;31.00
69239;BME280;56349;51.816;-0.026;2023-07-08T04:50:37;100717.19;;;27.66;31.03
69239;BME280;56349;51.816;-0.026;2023-07-08T04:52:52;100711.26;;;27.64;31.08
69239;BME280;56349;51.816;-0.026;2023-07-08T04:55:18;100704.89;;;27.60;31.11
69239;BME280;56349;51.816;-0.026;2023-07-08T04:57:43;100700.21;;;27.56;31.15
69239;BME280;56349;51.816;-0.026;2023-07-08T05:00:14;100699.92;;;27.53;31.20
69239;BME280;56349;51.816;-0.026;2023-07-08T05:02:35;100699.38;;;27.49;31.25
69239;BME280;56349;51.816;-0.026;2023-07-08T05:05:10;100695.93;;;27.73;31.30
69239;BME280;56349;51.816;-0.026;2023-07-08T05:07:27;100695.62;;;27.45;31.31
69239;BME280;56349;51.816;-0.026;2023-07-08T05:09:58;100696.39;;;27.46;31.30
69239;BME280;56349;51.816;-0.026;2023-07-08T05:12:18;100707.53;;;27.45;31.32
69239;BME280;56349;51.816;-0.026;2023-07-08T05:14:44;100708.52;;;27.44;31.34
69239;BME280;56349;51.816;-0.026;2023-07-08T05:17:10;100705.37;;;27.41;31.38
69239;BME280;56349;51.816;-0.026;2023-07-08T05:19:36;100705.67;;;27.37;31.41
69239;BME280;56349;51.816;-0.026;2023-07-08T05:22:02;100705.59;;;27.34;31.45
69239;BME280;56349;51.816;-0.026;2023-07-08T05:24:27;100707.18;;;27.30;31.51
69239;BME280;56349;51.816;-0.026;2023-07-08T05:26:53;100709.48;;;27.28;31.52
69239;BME280;56349;51.816;-0.026;2023-07-08T05:29:20;100713.77;;;27.27;31.55
69239;BME280;56349;51.816;-0.026;2023-07-08T05:31:45;100714.46;;;27.74;31.56
69239;BME280;56349;51.816;-0.026;2023-07-08T05:34:11;100720.10;;;27.50;31.59
69239;BME280;56349;51.816;-0.026;2023-07-08T05:36:37;100719.25;;;27.20;31.62
69239;BME280;56349;51.816;-0.026;2023-07-08T05:39:03;100716.57;;;27.45;31.64
69239;BME280;56349;51.816;-0.026;2023-07-08T05:41:28;100719.29;;;27.21;31.62
69239;BME280;56349;51.816;-0.026;2023-07-08T05:43:54;100718.97;;;27.19;31.65
69239;BME280;56349;51.816;-0.026;2023-07-08T05:46:20;100715.99;;;27.45;31.65
69239;BME280;56349;51.816;-0.026;2023-07-08T05:48:46;100717.70;;;27.17;31.67
69239;BME280;56349;51.816;-0.026;2023-07-08T05:51:12;100718.59;;;27.41;31.70
69239;BME280;56349;51.816;-0.026;2023-07-08T05:53:39;100722.18;;;27.38;31.73
69239;BME280;56349;51.816;-0.026;2023-07-08T05:56:05;100726.95;;;27.38;31.75
69239;BME280;56349;51.816;-0.026;2023-07-08T05:58:30;100725.02;;;27.37;31.75
69239;BME280;56349;51.816;-0.026;2023-07-08T06:00:57;100716.91;;;27.09;31.77
69239;BME280;56349;51.816;-0.026;2023-07-08T06:03:22;100718.23;;;27.56;31.80
69239;BME280;56349;51.816;-0.026;2023-07-08T06:05:47;100719.71;;;27.05;31.82
69239;BME280;56349;51.816;-0.026;2023-07-08T06:08:13;100712.01;;;27.05;31.84
69239;BME280;56349;51.816;-0.026;2023-07-08T06:10:42;100709.71;;;27.30;31.86
69239;BME280;56349;51.816;-0.026;2023-07-08T06:13:04;100715.68;;;27.02;31.88
69239;BME280;56349;51.816;-0.026;2023-07-08T06:15:30;100720.63;;;27.00;31.91
69239;BME280;56349;51.816;-0.026;2023-07-08T06:17:56;100721.22;;;27.26;31.91
69239;BME280;56349;51.816;-0.026;2023-07-08T06:20:22;100718.23;;;27.25;31.93
69239;BME280;56349;51.816;-0.026;2023-07-08T06:22:48;100719.02;;;27.45;31.95
69239;BME280;56349;51.816;-0.026;2023-07-08T06:25:14;100725.90;;;27.22;31.98
69239;BME280;56349;51.816;-0.026;2023-07-08T06:27:40;100728.92;;;26.95;31.99
69239;BME280;56349;51.816;-0.026;2023-07-08T06:30:08;100730.72;;;27.21;31.99
69239;BME280;56349;51.816;-0.026;2023-07-08T06:32:32;100730.53;;;26.95;32.66
69239;BME280;56349;51.816;-0.026;2023-07-08T06:34:58;100725.79;;;26.90;33.37
69239;BME280;56349;51.816;-0.026;2023-07-08T06:37:24;100734.25;;;27.37;33.02
69239;BME280;56349;51.816;-0.026;2023-07-08T06:39:50;100729.90;;;26.88;33.72
69239;BME280;56349;51.816;-0.026;2023-07-08T06:42:16;100727.65;;;27.15;33.55
69239;BME280;56349;51.816;-0.026;2023-07-08T06:44:42;100726.50;;;27.16;33.66
69239;BME280;56349;51.816;-0.026;2023-07-08T06:47:08;100729.38;;;27.16;33.92
69239;BME280;56349;51.816;-0.026;2023-07-08T06:49:34;100728.54;;;27.16;33.64
69239;BME280;56349;51.816;-0.026;2023-07-08T06:52:09;100741.05;;;27.17;33.78
69239;BME280;56349;51.816;-0.026;2023-07-08T06:54:25;100741.13;;;26.96;33.85
69239;BME280;56349;51.816;-0.026;2023-07-08T06:56:52;100739.27;;;27.10;33.67
69239;BME280;56349;51.816;-0.026;2023-07-08T06:59:17;100745.02;;;27.27;33.51
69239;BME280;56349;51.816;-0.026;2023-07-08T07:01:43;100740.50;;;27.49;33.37
69239;BME280;56349;51.816;-0.026;2023-07-08T07:04:09;100753.34;;;27.73;33.11
69239;BME280;56349;51.816;-0.026;2023-07-08T07:06:35;100761.21;;;28.03;32.84
69239;BME280;56349;51.816;-0.026;2023-07-08T07:09:03;100767.68;;;27.90;32.52
69239;BME280;56349;51.816;-0.026;2023-07-08T07:11:27;100769.93;;;28.24;32.23
69239;BME280;56349;51.816;-0.026;2023-07-08T07:13:53;100777.15;;;28.58;31.96
69239;BME280;56349;51.816;-0.026;2023-07-08T07:16:19;100767.13;;;28.94;31.71
69239;BME280;56349;51.816;-0.026;2023-07-08T07:18:45;100766.72;;;28.84;31.44
69239;BME280;56349;51.816;-0.026;2023-07-08T07:21:11;100769.58;;;29.16;31.09
69239;BME280;56349;51.816;-0.026;2023-07-08T07:23:37;100775.35;;;29.47;30.77
69239;BME280;56349;51.816;-0.026;2023-07-08T07:26:05;100784.94;;;29.76;30.61
69239;BME280;56349;51.816;-0.026;2023-07-08T07:28:30;100792.40;;;29.73;30.32
69239;BME280;56349;51.816;-0.026;2023-07-08T07:31:00;100788.24;;;29.93;30.06
69239;BME280;56349;51.816;-0.026;2023-07-08T07:33:19;100782.04;;;29.92;29.84
69239;BME280;56349;51.816;-0.026;2023-07-08T07:35:46;100781.66;;;30.10;29.58
69239;BME280;56349;51.816;-0.026;2023-07-08T07:38:11;100783.59;;;30.34;29.39
69239;BME280;56349;51.816;-0.026;2023-07-08T07:40:36;100786.71;;;30.29;29.12
69239;BME280;56349;51.816;-0.026;2023-07-08T07:43:02;100786.24;;;30.75;28.91
69239;BME280;56349;51.816;-0.026;2023-07-08T07:45:28;100792.13;;;30.48;28.70
69239;BME280;56349;51.816;-0.026;2023-07-08T07:47:54;100794.61;;;30.71;28.52
69239;BME280;56349;51.816;-0.026;2023-07-08T07:50:20;100788.40;;;30.89;28.44
69239;BME280;56349;51.816;-0.026;2023-07-08T07:52:45;100792.40;;;31.09;28.24
69239;BME280;56349;51.816;-0.026;2023-07-08T07:55:11;100799.27;;;31.32;28.02
69239;BME280;56349;51.816;-0.026;2023-07-08T07:57:36;100802.72;;;31.41;27.92
69239;BME280;56349;51.816;-0.026;2023-07-08T08:00:01;100807.03;;;31.52;27.92
69239;BME280;56349;51.816;-0.026;2023-07-08T08:02:27;100804.53;;;31.37;27.79
69239;BME280;56349;51.816;-0.026;2023-07-08T08:04:53;100806.74;;;31.69;27.73
69239;BME280;56349;51.816;-0.026;2023-07-08T08:07:20;100811.10;;;31.71;27.73
69239;BME280;56349;51.816;-0.026;2023-07-08T08:09:45;100804.61;;;31.71;27.69
69239;BME280;56349;51.816;-0.026;2023-07-08T08:12:11;100801.45;;;31.81;27.58
69239;BME280;56349;51.816;-0.026;2023-07-08T08:14:37;100798.39;;;31.94;27.47
69239;BME280;56349;51.816;-0.026;2023-07-08T08:17:03;100797.86;;;32.06;27.40
69239;BME280;56349;51.816;-0.026;2023-07-08T08:19:27;100804.94;;;32.21;27.26
69239;BME280;56349;51.816;-0.026;2023-07-08T08:21:54;100804.93;;;31.80;27.23
69239;BME280;56349;51.816;-0.026;2023-07-08T08:24:20;100807.22;;;31.89;27.09
69239;BME280;56349;51.816;-0.026;2023-07-08T08:26:44;100809.58;;;32.00;26.99
69239;BME280;56349;51.816;-0.026;2023-07-08T08:29:10;100811.35;;;32.11;26.91
69239;BME280;56349;51.816;-0.026;2023-07-08T08:31:36;100813.48;;;32.16;26.81
69239;BME280;56349;51.816;-0.026;2023-07-08T08:34:02;100820.99;;;32.25;26.83
69239;BME280;56349;51.816;-0.026;2023-07-08T08:36:28;100827.97;;;32.35;26.79
69239;BME280;56349;51.816;-0.026;2023-07-08T08:38:54;100835.67;;;32.48;26.85
69239;BME280;56349;51.816;-0.026;2023-07-08T08:41:27;100844.26;;;32.53;26.70
69239;BME280;56349;51.816;-0.026;2023-07-08T08:43:47;100855.55;;;32.50;26.60
69239;BME280;56349;51.816;-0.026;2023-07-08T08:46:18;100863.00;;;32.41;26.53
69239;BME280;56349;51.816;-0.026;2023-07-08T08:48:41;100870.61;;;32.24;26.54
69239;BME280;56349;51.816;-0.026;2023-07-08T08:51:12;100874.72;;;32.51;26.61
69239;BME280;56349;51.816;-0.026;2023-07-08T08:53:27;100868.63;;;32.27;26.73
69239;BME280;56349;51.816;-0.026;2023-07-08T08:55:58;100871.21;;;32.02;26.86
69239;BME280;56349;51.816;-0.026;2023-07-08T09:00:51;100885.79;;;31.56;27.16
69239;BME280;56349;51.816;-0.026;2023-07-08T09:03:12;100894.05;;;31.35;27.31
69239;BME280;56349;51.816;-0.026;2023-07-08T09:05:36;100899.14;;;31.10;27.48
69239;BME280;56349;51.816;-0.026;2023-07-08T09:08:05;100902.86;;;31.35;27.71
69239;BME280;56349;51.816;-0.026;2023-07-08T09:10:35;100899.50;;;30.85;27.90
69239;BME280;56349;51.816;-0.026;2023-07-08T09:12:55;100897.79;;;30.89;28.09
69239;BME280;56349;51.816;-0.026;2023-07-08T09:15:19;100899.49;;;30.69;28.26
69239;BME280;56349;51.816;-0.026;2023-07-08T09:17:44;100906.87;;;30.50;28.44
69239;BME280;56349;51.816;-0.026;2023-07-08T09:20:17;100905.17;;;30.31;28.65
69239;BME280;56349;51.816;-0.026;2023-07-08T09:22:39;100914.49;;;30.36;28.85
69239;BME280;56349;51.816;-0.026;2023-07-08T09:25:05;100913.70;;;30.20;29.04
69239;BME280;56349;51.816;-0.026;2023-07-08T09:27:26;100914.46;;;30.05;29.23
69239;BME280;56349;51.816;-0.026;2023-07-08T09:29:52;100912.76;;;29.92;29.40
69239;BME280;56349;51.816;-0.026;2023-07-08T09:32:21;100915.83;;;30.08;29.59
69239;BME280;56349;51.816;-0.026;2023-07-08T09:34:46;100915.73;;;29.95;29.76
69239;BME280;56349;51.816;-0.026;2023-07-08T09:39:36;100909.63;;;29.75;30.06
69239;BME280;56349;51.816;-0.026;2023-07-08T09:42:06;100912.47;;;29.67;30.19
69239;BME280;56349;51.816;-0.026;2023-07-08T09:44:28;100912.27;;;29.80;30.33
69239;BME280;56349;51.816;-0.026;2023-07-08T09:46:52;100920.97;;;29.95;30.45
69239;BME280;56349;51.816;-0.026;2023-07-08T09:49:21;100928.42;;;29.66;30.48
69239;BME280;56349;51.816;-0.026;2023-07-08T09:51:43;100938.83;;;29.40;30.38
69239;BME280;56349;51.816;-0.026;2023-07-08T09:54:08;100937.69;;;29.59;30.23
69239;BME280;56349;51.816;-0.026;2023-07-08T09:56:35;100940.28;;;29.31;30.29
69239;BME280;56349;51.816;-0.026;2023-07-08T09:59:00;100937.74;;;29.73;30.48
69239;BME280;56349;51.816;-0.026;2023-07-08T10:01:26;100937.85;;;29.73;30.66
69239;BME280;56349;51.816;-0.026;2023-07-08T10:03:51;100932.38;;;29.29;30.51
69239;BME280;56349;51.816;-0.026;2023-07-08T10:06:20;100926.54;;;29.51;30.13
69239;BME280;56349;51.816;-0.026;2023-07-08T10:08:43;100927.75;;;29.77;30.03
69239;BME280;56349;51.816;-0.026;2023-07-08T10:11:14;100937.48;;;29.35;29.96
69239;BME280;56349;51.816;-0.026;2023-07-08T10:13:39;100939.72;;;29.36;29.48
69239;BME280;56349;51.816;-0.026;2023-07-08T10:16:09;100945.00;;;29.81;29.13
69239;BME280;56349;51.816;-0.026;2023-07-08T10:18:27;100945.95;;;29.58;28.99
69239;BME280;56349;51.816;-0.026;2023-07-08T10:20:56;100952.33;;;29.59;28.81
69239;BME280;56349;51.816;-0.026;2023-07-08T10:23:24;100957.83;;;29.79;28.62
69239;BME280;56349;51.816;-0.026;2023-07-08T10:25:46;100957.25;;;29.77;28.51
69239;BME280;56349;51.816;-0.026;2023-07-08T10:30:39;100973.62;;;29.79;28.30
69239;BME280;56349;51.816;-0.026;2023-07-08T10:33:12;100978.42;;;29.34;28.17
69239;BME280;56349;51.816;-0.026;2023-07-08T10:35:27;100981.75;;;29.56;28.12
69239;BME280;56349;51.816;-0.026;2023-07-08T10:38:01;100982.72;;;29.76;28.00
69239;BME280;56349;51.816;-0.026;2023-07-08T10:40:27;100976.61;;;29.72;28.09
69239;BME280;56349;51.816;-0.026;2023-07-08T10:42:51;100976.79;;;29.24;28.19
69239;BME280;56349;51.816;-0.026;2023-07-08T10:45:11;100981.06;;;29.22;28.31
69239;BME280;56349;51.816;-0.026;2023-07-08T10:47:40;100985.23;;;29.65;28.41
69239;BME280;56349;51.816;-0.026;2023-07-08T10:50:08;100991.51;;;29.67;28.46
69239;BME280;56349;51.816;-0.026;2023-07-08T10:52:33;100994.91;;;29.24;28.50
69239;BME280;56349;51.816;-0.026;2023-07-08T10:54:59;100995.91;;;29.47;28.34
69239;BME280;56349;51.816;-0.026;2023-07-08T10:57:27;100999.50;;;29.24;28.20
69239;BME280;56349;51.816;-0.026;2023-07-08T10:59:48;100993.84;;;29.70;28.19
69239;BME280;56349;51.816;-0.026;2023-07-08T11:04:39;101000.97;;;29.48;28.41
69239;BME280;56349;51.816;-0.026;2023-07-08T11:06:57;101012.79;;;29.52;28.47
69239;BME280;56349;51.816;-0.026;2023-07-08T11:09:26;101025.76;;;29.31;28.55
69239;BME280;56349;51.816;-0.026;2023-07-08T11:11:51;101042.31;;;29.34;28.71
69239;BME280;56349;51.816;-0.026;2023-07-08T11:14:14;101053.84;;;29.78;28.86
69239;BME280;56349;51.816;-0.026;2023-07-08T11:16:40;101059.85;;;29.75;29.00
69239;BME280;56349;51.816;-0.026;2023-07-08T11:19:05;101064.27;;;29.74;29.09
69239;BME280;56349;51.816;-0.026;2023-07-08T11:21:31;101071.38;;;29.72;29.14
69239;BME280;56349;51.816;-0.026;2023-07-08T11:23:57;101066.55;;;29.66;29.21
69239;BME280;56349;51.816;-0.026;2023-07-08T11:26:23;101072.27;;;29.37;29.33
69239;BME280;56349;51.816;-0.026;2023-07-08T11:28:44;101079.87;;;29.57;29.46
69239;BME280;56349;51.816;-0.026;2023-07-08T11:31:10;101079.04;;;29.28;29.46
69239;BME280;56349;51.816;-0.026;2023-07-08T11:33:36;101084.39;;;29.45;29.56
69239;BME280;56349;51.816;-0.026;2023-07-08T11:36:02;101074.21;;;29.16;29.65
69239;BME280;56349;51.816;-0.026;2023-07-08T11:38:27;101054.02;;;29.34;29.74
69239;BME280;56349;51.816;-0.026;2023-07-08T11:40:56;101037.53;;;29.30;29.80
69239;BME280;56349;51.816;-0.026;2023-07-08T11:43:19;101025.16;;;29.22;29.91
69239;BME280;56349;51.816;-0.026;2023-07-08T11:45:44;101020.56;;;28.95;29.98
69239;BME280;56349;51.816;-0.026;2023-07-08T11:48:13;101021.14;;;28.91;30.06
69239;BME280;56349;51.816;-0.026;2023-07-08T11:50:37;101027.65;;;29.09;30.13
69239;BME280;56349;51.816;-0.026;2023-07-08T11:53:03;101034.92;;;29.04;30.20
69239;BME280;56349;51.816;-0.026;2023-07-08T11:55:35;101038.70;;;29.02;30.23
69239;BME280;56349;51.816;-0.026;2023-07-08T11:57:53;101040.00;;;29.26;30.29
69239;BME280;56349;51.816;-0.026;2023-07-08T12:00:19;101037.89;;;28.97;30.33
69239;BME280;56349;51.816;-0.026;2023-07-08T12:02:48;101035.62;;;28.93;30.39
69239;BME280;56349;51.816;-0.026;2023-07-08T12:05:13;101032.02;;;29.16;30.46
69239;BME280;56349;51.816;-0.026;2023-07-08T12:07:36;101034.54;;;28.89;30.50
69239;BME280;56349;51.816;-0.026;2023-07-08T12:10:00;101032.22;;;28.89;30.52
69239;BME280;56349;51.816;-0.026;2023-07-08T12:12:25;101023.31;;;28.86;30.57
69239;BME280;56349;51.816;-0.026;2023-07-08T12:14:50;101019.33;;;28.86;30.62
69239;BME280;56349;51.816;-0.026;2023-07-08T12:17:15;101017.89;;;28.88;30.61
69239;BME280;56349;51.816;-0.026;2023-07-08T12:19:42;101016.03;;;28.87;30.65
69239;BME280;56349;51.816;-0.026;2023-07-08T12:22:08;101008.26;;;28.84;30.71
69239;BME280;56349;51.816;-0.026;2023-07-08T12:24:30;101005.71;;;28.80;30.78
69239;BME280;56349;51.816;-0.026;2023-07-08T12:26:55;101008.67;;;29.05;30.79
69239;BME280;56349;51.816;-0.026;2023-07-08T12:29:22;101010.17;;;28.77;30.82
69239;BME280;56349;51.816;-0.026;2023-07-08T12:31:47;101008.41;;;28.75;30.86
69239;BME280;56349;51.816;-0.026;2023-07-08T12:34:14;101006.72;;;28.72;30.90
69239;BME280;56349;51.816;-0.026;2023-07-08T12:36:38;101009.27;;;28.70;30.95
69239;BME280;56349;51.816;-0.026;2023-07-08T12:39:05;101006.71;;;28.68;30.99
69239;BME280;56349;51.816;-0.026;2023-07-08T12:41:32;101007.90;;;28.68;30.99